Time;durP1;ratioP1;P1;durP2;ratioP2;P2;SDS_P1;SDS_P2;PMS_P1;PMS_P2;Temp;Humidity;BMP_temperature;BMP_pressure;BME280_temperature;BME280_humidity;BME280_pressure;Samples;Min_cycle;Max_cycle;Signal;HPM_P1;HPM_P2
2022/09/16 00:00:20;;;;;;;;;3.33;3.33;;;;;17.76;61.96;100847.53;5016221;28;45417;-78
2022/09/16 00:02:46;;;;;;;;;4.00;4.00;;;;;17.69;62.31;100850.25;5020784;28;45369;-78
2022/09/16 00:05:12;;;;;;;;;4.00;4.00;;;;;17.63;62.48;100856.53;5030633;28;46555;-78
2022/09/16 00:07:38;;;;;;;;;4.00;4.00;;;;;17.62;63.00;100873.66;5016040;28;46020;-78
2022/09/16 00:10:04;;;;;;;;;5.00;5.00;;;;;17.49;63.23;100856.63;5016343;28;45365;-78
2022/09/16 00:12:30;;;;;;;;;4.67;4.67;;;;;17.48;63.38;100875.66;5016341;27;45223;-78
2022/09/16 00:14:55;;;;;;;;;3.33;3.33;;;;;17.42;63.73;100872.78;5016165;27;45497;-78
2022/09/16 00:17:21;;;;;;;;;4.00;4.00;;;;;17.40;63.71;100879.41;5026652;28;67457;-78
2022/09/16 00:19:46;;;;;;;;;6.00;6.00;;;;;17.29;63.83;100870.19;5024285;28;45297;-78
2022/09/16 00:22:12;;;;;;;;;4.00;4.00;;;;;17.25;64.08;100877.84;5020901;28;45732;-78
2022/09/16 00:24:37;;;;;;;;;6.00;6.00;;;;;17.20;63.27;100871.47;5021780;28;47005;-78
2022/09/16 00:27:03;;;;;;;;;5.33;4.33;;;;;17.16;64.06;100874.56;5022819;28;46587;-78
2022/09/16 00:29:28;;;;;;;;;5.33;5.33;;;;;17.12;64.15;100878.72;5030300;28;45908;-78
2022/09/16 00:31:53;;;;;;;;;7.00;7.00;;;;;17.07;64.45;100880.41;5016314;28;45466;-78
2022/09/16 00:34:19;;;;;;;;;5.00;5.00;;;;;17.07;65.03;100889.31;5015026;28;67391;-78
2022/09/16 00:36:44;;;;;;;;;8.00;6.00;;;;;16.96;64.91;100880.03;5020157;28;47153;-78
2022/09/16 00:39:09;;;;;;;;;6.00;5.67;;;;;17.01;65.10;100893.66;5014981;28;59984;-78
2022/09/16 00:41:36;;;;;;;;;6.33;6.00;;;;;16.99;64.75;100901.09;5016138;28;45575;-78
2022/09/16 00:44:04;;;;;;;;;6.67;6.67;;;;;16.97;64.96;100905.81;5015752;28;45357;-78
2022/09/16 00:46:39;;;;;;;;;7.00;7.00;;;;;16.93;65.51;100901.94;5015422;28;45987;-78
2022/09/16 00:49:17;;;;;;;;;6.00;6.00;;;;;16.85;65.59;100894.13;5015866;28;46613;-78
2022/09/16 00:51:46;;;;;;;;;7.67;7.67;;;;;16.81;65.90;100892.88;5029655;28;45168;-78
2022/09/16 00:54:14;;;;;;;;;6.67;6.67;;;;;16.82;65.92;100906.09;5015518;28;45357;-78
2022/09/16 00:56:45;;;;;;;;;7.33;7.33;;;;;16.76;65.89;100902.41;5015292;28;46643;-78
2022/09/16 00:59:18;;;;;;;;;5.00;5.00;;;;;16.71;66.73;100888.81;5015634;28;45406;-78
2022/09/16 01:01:45;;;;;;;;;5.00;5.00;;;;;16.68;66.64;100894.59;5015218;28;45365;-78
2022/09/16 01:04:21;;;;;;;;;5.33;5.33;;;;;16.63;66.50;100891.72;5017296;28;47441;-78
2022/09/16 01:06:48;;;;;;;;;5.67;4.67;;;;;16.65;66.93;100905.75;5015120;28;45326;-78
2022/09/16 01:09:15;;;;;;;;;6.00;6.00;;;;;16.61;67.29;100894.59;5020003;28;45310;-78
2022/09/16 01:11:40;;;;;;;;;6.00;6.00;;;;;16.60;66.94;100900.19;5030893;28;45290;-78
2022/09/16 01:17:04;;;;;;;;;2.00;2.00;;;;;16.59;67.00;100898.53;5027730;28;45869;-78
2022/09/16 01:19:51;;;;;;;;;7.33;7.33;;;;;16.55;67.52;100905.38;5023857;28;46807;-78
2022/09/16 01:22:32;;;;;;;;;3.33;3.33;;;;;16.47;67.04;100890.31;5033459;28;45359;-78
2022/09/16 01:25:19;;;;;;;;;5.00;5.00;;;;;16.41;67.12;100891.97;5026700;28;45338;-78
2022/09/16 01:28:24;;;;;;;;;5.00;5.00;;;;;16.37;67.49;100885.41;5033300;28;48362;-78
2022/09/16 01:31:21;;;;;;;;;4.67;4.67;;;;;16.39;67.78;100902.09;5018077;28;45430;-78
2022/09/16 01:34:07;;;;;;;;;7.00;7.00;;;;;16.30;67.86;100897.97;5030683;28;45893;-79
2022/09/16 01:37:07;;;;;;;;;6.00;6.00;;;;;16.31;68.06;100897.75;5030881;28;45809;-78
2022/09/16 01:39:40;;;;;;;;;6.00;6.00;;;;;16.30;68.32;100906.00;5034102;28;47087;-78
2022/09/16 01:42:25;;;;;;;;;7.67;7.67;;;;;16.26;68.82;100901.06;5033303;28;49031;-78
2022/09/16 01:45:02;;;;;;;;;7.00;7.00;;;;;16.21;69.36;100897.38;5017951;28;45469;-78
2022/09/16 01:48:02;;;;;;;;;6.67;6.00;;;;;16.20;69.07;100899.25;5018005;28;45234;-78
2022/09/16 01:50:44;;;;;;;;;7.67;7.67;;;;;16.20;69.07;100904.59;5023552;28;46298;-78
2022/09/16 01:53:20;;;;;;;;;7.33;7.33;;;;;16.18;68.99;100905.81;5035998;28;45396;-78
2022/09/16 01:55:59;;;;;;;;;6.00;6.00;;;;;16.09;69.30;100897.16;5018171;28;45289;-78
2022/09/16 01:58:32;;;;;;;;;7.00;7.00;;;;;16.11;69.45;100895.13;5028334;28;47213;-78
2022/09/16 02:01:07;;;;;;;;;7.00;7.00;;;;;16.05;68.92;100890.56;5024655;28;46944;-79
2022/09/16 02:03:36;;;;;;;;;6.33;6.33;;;;;16.00;69.54;100889.34;5022171;28;45376;-78
2022/09/16 02:06:07;;;;;;;;;8.33;6.00;;;;;15.97;69.36;100895.13;5024817;28;45360;-78
2022/09/16 02:08:49;;;;;;;;;7.00;7.00;;;;;15.93;69.96;100904.59;5022622;28;45614;-78
2022/09/16 02:11:17;;;;;;;;;6.00;6.00;;;;;15.94;69.87;100900.88;5025261;28;47268;-78
2022/09/16 02:13:48;;;;;;;;;6.00;6.00;;;;;15.88;69.90;100897.16;5022011;28;45448;-78
2022/09/16 02:16:21;;;;;;;;;6.67;6.67;;;;;15.85;70.10;100894.06;5024570;28;45461;-78
2022/09/16 02:18:53;;;;;;;;;6.00;6.00;;;;;15.83;70.48;100894.25;5022544;28;45313;-78
2022/09/16 02:21:23;;;;;;;;;9.00;7.00;;;;;15.84;70.53;100895.09;5017606;28;45284;-78
2022/09/16 02:23:53;;;;;;;;;6.33;6.33;;;;;15.73;70.44;100877.75;5017262;28;45359;-78
2022/09/16 02:26:23;;;;;;;;;6.33;5.67;;;;;15.72;70.69;100895.72;5017894;28;45437;-78
2022/09/16 02:28:52;;;;;;;;;9.00;9.00;;;;;15.66;71.18;100901.88;5017044;28;45492;-78
2022/09/16 02:31:23;;;;;;;;;8.33;6.67;;;;;15.64;71.25;100902.09;5017491;28;45444;-78
2022/09/16 02:34:18;;;;;;;;;7.00;7.00;;;;;15.69;71.09;100906.84;5017635;28;45337;-78
2022/09/16 02:36:49;;;;;;;;;7.67;7.67;;;;;15.66;71.26;100899.22;5017082;28;45357;-79
2022/09/16 02:39:19;;;;;;;;;7.00;7.00;;;;;15.66;71.34;100899.22;5016934;28;45556;-78
2022/09/16 02:41:45;;;;;;;;;7.33;7.33;;;;;15.64;71.87;100894.06;5023944;28;48334;-78
2022/09/16 02:44:11;;;;;;;;;7.67;7.67;;;;;15.72;71.77;100900.25;5023164;28;45754;-78
2022/09/16 02:46:53;;;;;;;;;8.00;8.00;;;;;15.72;72.07;100885.00;5022186;28;45364;-78
2022/09/16 02:49:47;;;;;;;;;8.00;8.00;;;;;15.73;71.86;100889.31;5022987;28;45439;-78
2022/09/16 02:52:12;;;;;;;;;6.00;5.00;;;;;15.75;72.81;100889.13;5029717;27;45557;-78
2022/09/16 02:54:41;;;;;;;;;7.00;7.00;;;;;15.76;72.95;100899.63;5017359;28;45285;-78
2022/09/16 02:57:08;;;;;;;;;7.33;7.33;;;;;15.74;72.76;100885.59;5017271;28;45411;-78
2022/09/16 02:59:33;;;;;;;;;9.33;8.00;;;;;15.75;72.55;100876.53;5017121;28;45476;-78
2022/09/16 03:02:00;;;;;;;;;2.67;2.67;;;;;15.83;72.54;100888.91;5016885;28;46398;-78
2022/09/16 03:04:25;;;;;;;;;8.00;8.00;;;;;15.80;73.18;100883.94;5041146;28;45372;-77
2022/09/16 03:06:51;;;;;;;;;7.67;7.67;;;;;15.82;73.05;100883.75;5032570;28;45329;-78
2022/09/16 03:09:23;;;;;;;;;8.00;8.00;;;;;15.85;72.67;100880.66;5022129;28;46128;-78
2022/09/16 03:11:54;;;;;;;;;9.33;8.67;;;;;15.84;72.33;100877.16;5022063;28;48162;-77
2022/09/16 03:14:41;;;;;;;;;9.67;8.00;;;;;15.85;73.01;100877.97;5016836;28;45368;-78
2022/09/16 03:17:14;;;;;;;;;8.00;7.00;;;;;15.83;73.14;100878.19;5021430;28;45318;-78
2022/09/16 03:19:39;;;;;;;;;6.00;6.00;;;;;15.88;73.19;100888.28;5017753;28;45293;-78
2022/09/16 03:22:25;;;;;;;;;8.67;8.67;;;;;15.89;73.17;100888.06;5024236;28;48225;-78
2022/09/16 03:25:16;;;;;;;;;9.00;9.00;;;;;15.92;73.44;100878.00;5015500;28;45398;-78
2022/09/16 03:27:59;;;;;;;;;8.33;8.33;;;;;15.82;73.26;100856.94;5029611;28;45322;-78
2022/09/16 03:30:25;;;;;;;;;9.67;9.00;;;;;15.88;73.21;100867.69;5016790;28;45347;-78
2022/09/16 03:32:56;;;;;;;;;12.33;9.33;;;;;15.91;73.19;100885.19;5016556;28;45294;-78
2022/09/16 03:35:44;;;;;;;;;11.33;10.33;;;;;15.85;73.72;100873.44;5016725;28;45336;-78
2022/09/16 03:38:12;;;;;;;;;11.00;10.33;;;;;15.80;73.13;100864.38;5031351;27;45300;-78
2022/09/16 03:40:39;;;;;;;;;10.67;10.67;;;;;15.82;73.19;100875.69;5015393;28;45247;-78
2022/09/16 03:43:15;;;;;;;;;9.33;9.00;;;;;15.78;73.62;100878.78;5016330;28;45408;-78
2022/09/16 03:45:41;;;;;;;;;9.33;9.00;;;;;15.70;73.46;100870.97;5016616;28;45314;-78
2022/09/16 03:48:08;;;;;;;;;11.00;11.00;;;;;15.73;72.95;100881.28;5016531;28;45506;-78
2022/09/16 03:50:34;;;;;;;;;11.67;10.33;;;;;15.74;73.28;100885.59;5023071;28;45308;-78
2022/09/16 03:52:59;;;;;;;;;10.00;10.00;;;;;15.64;73.50;100883.34;5023345;28;46471;-78
2022/09/16 03:55:25;;;;;;;;;9.33;9.00;;;;;15.61;73.53;100881.06;5033731;28;45780;-78
2022/09/16 03:57:52;;;;;;;;;10.67;10.67;;;;;15.63;73.84;100892.38;5025832;28;45407;-78
2022/09/16 04:00:18;;;;;;;;;13.00;12.33;;;;;15.63;73.50;100896.94;5028927;28;46384;-78
2022/09/16 04:02:43;;;;;;;;;10.67;10.00;;;;;15.63;73.66;100892.38;5023771;28;46035;-79
2022/09/16 04:05:09;;;;;;;;;10.33;10.00;;;;;15.61;73.90;100891.78;5034289;28;45770;-78
2022/09/16 04:07:34;;;;;;;;;11.00;10.33;;;;;15.64;74.03;100898.56;5021541;28;45388;-78
2022/09/16 04:10:00;;;;;;;;;11.33;10.00;;;;;15.63;74.43;100891.56;5023451;28;45686;-79
2022/09/16 04:12:26;;;;;;;;;10.00;10.00;;;;;15.58;74.41;100889.50;5015962;28;45325;-78
2022/09/16 04:14:52;;;;;;;;;10.00;10.00;;;;;15.49;74.56;100886.19;5016030;28;45343;-78
2022/09/16 04:17:17;;;;;;;;;11.67;10.67;;;;;15.47;74.59;100888.25;5027261;28;45527;-78
2022/09/16 04:19:43;;;;;;;;;11.67;9.67;;;;;15.46;74.60;100893.81;5016330;28;45395;-78
2022/09/16 04:22:08;;;;;;;;;7.00;6.00;;;;;15.45;74.27;100898.34;5014403;28;47064;-78
2022/09/16 04:24:34;;;;;;;;;12.67;11.33;;;;;15.44;74.59;100902.03;5015945;28;45256;-79
2022/09/16 04:26:59;;;;;;;;;11.00;11.00;;;;;15.44;74.72;100902.03;5016179;28;45309;-78
2022/09/16 04:29:25;;;;;;;;;10.00;9.33;;;;;15.46;74.97;100915.22;5015791;28;45460;-78
2022/09/16 04:31:50;;;;;;;;;11.33;11.00;;;;;15.43;74.87;100903.06;5015987;28;45281;-78
2022/09/16 04:34:16;;;;;;;;;12.33;12.33;;;;;15.46;75.02;100904.50;5028551;28;45321;-78
2022/09/16 04:36:41;;;;;;;;;12.33;12.00;;;;;15.52;75.17;100903.72;5016217;28;45423;-78
2022/09/16 04:39:06;;;;;;;;;11.00;11.00;;;;;15.57;75.24;100908.47;5015758;28;45570;-77
2022/09/16 04:41:32;;;;;;;;;14.00;14.00;;;;;15.55;75.42;100903.31;5021043;28;46848;-78
2022/09/16 04:43:59;;;;;;;;;13.67;12.33;;;;;15.64;75.67;100909.28;5023648;28;45353;-78
2022/09/16 04:46:26;;;;;;;;;12.67;12.33;;;;;15.60;75.18;100908.88;5015640;28;45334;-77
2022/09/16 04:48:53;;;;;;;;;12.33;11.33;;;;;15.60;75.36;100905.38;5024886;28;45964;-78
2022/09/16 04:51:21;;;;;;;;;11.33;11.33;;;;;15.59;75.65;100912.56;5032796;28;45533;-77
2022/09/16 04:53:46;;;;;;;;;13.33;13.00;;;;;15.59;75.25;100909.09;5036775;28;45246;-78
2022/09/16 04:56:17;;;;;;;;;16.67;15.33;;;;;15.59;75.72;100901.06;5026249;28;45973;-78
2022/09/16 04:58:46;;;;;;;;;13.33;12.67;;;;;15.63;75.46;100899.63;5017138;28;45893;-78
2022/09/16 05:01:17;;;;;;;;;13.33;12.67;;;;;15.67;75.38;100908.88;5020296;28;47553;-78
2022/09/16 05:03:44;;;;;;;;;11.00;11.00;;;;;15.69;75.58;100912.19;5030955;28;45437;-78
2022/09/16 05:06:12;;;;;;;;;12.67;12.00;;;;;15.65;75.57;100914.44;5020268;28;45406;-78
2022/09/16 05:08:38;;;;;;;;;13.67;12.33;;;;;15.67;75.58;100922.28;5033498;27;45462;-78
2022/09/16 05:11:10;;;;;;;;;14.67;14.67;;;;;15.64;75.51;100911.97;5034120;28;47140;-78
2022/09/16 05:13:36;;;;;;;;;14.00;12.33;;;;;15.62;75.87;100914.84;5024830;28;45344;-78
2022/09/16 05:16:13;;;;;;;;;12.00;12.00;;;;;15.57;75.74;100914.66;5027624;28;45238;-79
2022/09/16 05:18:40;;;;;;;;;15.67;14.00;;;;;15.57;75.82;100916.50;5018343;28;45365;-78
2022/09/16 05:21:09;;;;;;;;;13.00;12.00;;;;;15.61;75.79;100917.72;5018354;28;46446;-78
2022/09/16 05:23:36;;;;;;;;;14.33;13.33;;;;;15.61;75.96;100918.56;5022827;28;45304;-78
2022/09/16 05:26:11;;;;;;;;;12.00;11.00;;;;;15.61;76.05;100917.72;5024578;28;45810;-78
2022/09/16 05:28:36;;;;;;;;;15.00;15.00;;;;;15.57;76.24;100916.50;5036532;28;46172;-78
2022/09/16 05:31:08;;;;;;;;;14.67;12.33;;;;;15.64;76.42;100920.84;5025093;28;48156;-77
2022/09/16 05:33:33;;;;;;;;;18.00;17.00;;;;;15.60;76.31;100908.88;5035162;28;46058;-78
2022/09/16 05:36:06;;;;;;;;;13.00;13.00;;;;;15.63;76.68;100908.44;5027967;28;45365;-79
2022/09/16 05:38:32;;;;;;;;;12.33;12.33;;;;;15.66;76.37;100909.91;5017774;28;45523;-79
2022/09/16 05:41:02;;;;;;;;;12.33;12.33;;;;;15.67;76.32;100916.91;5018192;28;45415;-78
2022/09/16 05:43:27;;;;;;;;;16.33;14.33;;;;;15.70;76.69;100921.88;5018184;28;45286;-79
2022/09/16 05:45:54;;;;;;;;;17.67;17.00;;;;;15.77;76.41;100933.41;5024763;28;45248;-79
2022/09/16 05:48:21;;;;;;;;;14.67;13.00;;;;;15.74;76.06;100930.31;5022486;28;47260;-79
2022/09/16 05:50:59;;;;;;;;;15.00;14.67;;;;;15.85;76.40;100942.28;5021311;28;46194;-79
2022/09/16 05:53:28;;;;;;;;;19.33;19.33;;;;;15.87;76.49;100929.53;5028064;28;45439;-79
2022/09/16 05:56:14;;;;;;;;;17.00;16.67;;;;;15.91;76.24;100930.75;5018108;28;45405;-79
2022/09/16 05:58:40;;;;;;;;;13.67;13.67;;;;;15.98;76.05;100923.56;5030259;28;46529;-78
2022/09/16 06:01:07;;;;;;;;;15.67;15.00;;;;;15.99;76.61;100938.63;5016313;28;47195;-78
2022/09/16 06:03:34;;;;;;;;;12.00;11.00;;;;;16.01;76.42;100931.19;5016702;28;45334;-79
2022/09/16 06:06:12;;;;;;;;;14.33;14.33;;;;;15.97;76.34;100940.69;5039873;28;45281;-77
2022/09/16 06:08:38;;;;;;;;;18.67;17.67;;;;;15.96;76.17;100935.50;5023079;28;45269;-76
2022/09/16 06:11:06;;;;;;;;;16.00;14.67;;;;;16.06;76.64;100940.47;5016380;28;47710;-76
2022/09/16 06:13:32;;;;;;;;;20.00;20.00;;;;;16.08;76.48;100933.06;5017747;28;45484;-77
2022/09/16 06:15:58;;;;;;;;;24.33;21.67;;;;;16.15;76.14;100945.44;5025935;28;45459;-77
2022/09/16 06:18:26;;;;;;;;;16.67;16.67;;;;;16.20;75.97;100944.00;5024875;28;45398;-76
2022/09/16 06:20:51;;;;;;;;;19.00;18.67;;;;;16.17;76.53;100942.56;5017310;28;46802;-75
2022/09/16 06:23:17;;;;;;;;;19.67;17.00;;;;;16.24;76.33;100942.53;5017180;28;45318;-76
2022/09/16 06:25:43;;;;;;;;;16.00;15.00;;;;;16.32;76.17;100955.75;5030299;28;45296;-76
2022/09/16 06:28:10;;;;;;;;;23.33;22.33;;;;;16.36;76.02;100948.09;5017246;28;45250;-76
2022/09/16 06:30:39;;;;;;;;;16.67;16.00;;;;;16.42;76.10;100949.94;5020519;28;46642;-77
2022/09/16 06:33:05;;;;;;;;;19.00;19.00;;;;;16.45;76.01;100948.69;5027216;28;45372;-77
2022/09/16 06:35:33;;;;;;;;;19.00;18.00;;;;;16.49;75.76;100944.59;5036050;28;45436;-76
2022/09/16 06:37:58;;;;;;;;;13.33;13.33;;;;;16.49;75.71;100936.53;5025646;28;45883;-77
2022/09/16 06:40:24;;;;;;;;;14.67;14.67;;;;;16.55;75.21;100943.72;5017160;28;46275;-76
2022/09/16 06:42:53;;;;;;;;;21.00;21.00;;;;;16.62;75.29;100952.63;5017297;28;45277;-77
2022/09/16 06:45:18;;;;;;;;;48.50;40.50;;;;;16.60;75.54;100940.44;5030026;28;45572;-77
2022/09/16 06:47:44;;;;;;;;;26.00;25.33;;;;;16.73;75.05;100953.81;5017386;28;45470;-77
2022/09/16 06:50:09;;;;;;;;;19.00;18.00;;;;;16.75;74.75;100949.06;5020383;28;46368;-76
2022/09/16 06:52:34;;;;;;;;;14.33;13.00;;;;;16.71;74.52;100947.00;5027708;28;45356;-76
2022/09/16 06:55:00;;;;;;;;;17.33;16.33;;;;;16.74;74.33;100955.47;5030099;28;45468;-78
2022/09/16 06:57:25;;;;;;;;;15.00;13.33;;;;;16.76;73.93;100956.06;5032344;28;45461;-76
2022/09/16 06:59:51;;;;;;;;;26.67;25.67;;;;;16.84;74.32;100962.25;5022625;28;46214;-76
2022/09/16 07:02:17;;;;;;;;;17.67;16.33;;;;;16.86;74.40;100963.72;5017091;28;45384;-76
2022/09/16 07:04:43;;;;;;;;;18.67;17.00;;;;;16.88;74.60;100969.66;5017036;28;45442;-76
2022/09/16 07:07:08;;;;;;;;;15.00;14.67;;;;;16.87;74.28;100964.50;5016829;28;45250;-76
2022/09/16 07:09:33;;;;;;;;;14.67;13.67;;;;;16.94;74.29;100976.03;5016852;28;45378;-76
2022/09/16 07:11:59;;;;;;;;;16.00;16.00;;;;;16.94;73.75;100980.63;5017556;28;45365;-77
2022/09/16 07:14:25;;;;;;;;;13.00;11.33;;;;;16.92;73.71;100975.44;5016566;28;45384;-75
2022/09/16 07:16:51;;;;;;;;;17.33;15.67;;;;;16.96;73.68;100982.03;5025944;28;47271;-77
2022/09/16 07:19:17;;;;;;;;;13.67;13.67;;;;;16.96;73.27;100976.66;5020433;28;45367;-75
2022/09/16 07:21:42;;;;;;;;;12.00;12.00;;;;;16.94;73.20;100967.19;5016285;28;45357;-76
2022/09/16 07:24:09;;;;;;;;;14.33;14.00;;;;;16.98;72.89;100979.97;5017055;28;45366;-76
2022/09/16 07:26:36;;;;;;;;;13.33;13.33;;;;;16.96;73.44;100982.03;5016814;28;45570;-75
2022/09/16 07:29:04;;;;;;;;;15.67;15.33;;;;;16.94;73.32;100977.94;5016560;28;46378;-76
2022/09/16 07:31:33;;;;;;;;;17.00;14.00;;;;;17.03;73.67;100990.91;5029169;28;45330;-76
2022/09/16 07:34:02;;;;;;;;;15.33;14.67;;;;;17.07;73.45;100995.88;5022440;28;45477;-75
2022/09/16 07:36:33;;;;;;;;;12.00;12.00;;;;;17.08;73.49;100984.09;5023244;28;45337;-76
2022/09/16 07:38:59;;;;;;;;;16.33;16.00;;;;;17.12;73.26;100988.84;5020973;28;47426;-77
2022/09/16 07:41:27;;;;;;;;;14.67;14.33;;;;;17.25;73.19;100995.19;5024555;28;45228;-76
2022/09/16 07:43:54;;;;;;;;;10.33;10.33;;;;;17.33;72.61;100994.13;5032011;28;45627;-77
2022/09/16 07:46:19;;;;;;;;;14.00;12.33;;;;;17.32;72.70;100992.47;5029402;28;45586;-74
2022/09/16 07:48:46;;;;;;;;;13.00;11.33;;;;;17.37;72.35;100989.97;5026292;28;47657;-76
2022/09/16 07:51:20;;;;;;;;;11.00;10.33;;;;;17.45;72.88;100996.97;5030924;28;45356;-76
2022/09/16 07:53:46;;;;;;;;;15.67;12.67;;;;;17.51;72.79;101002.31;5017503;28;45503;-76
2022/09/16 07:56:17;;;;;;;;;13.33;13.00;;;;;17.61;73.32;101006.41;5015260;28;45471;-79
2022/09/16 07:58:44;;;;;;;;;12.67;12.67;;;;;17.71;73.20;100997.84;5016131;28;45556;-78
2022/09/16 08:01:11;;;;;;;;;14.00;14.00;;;;;17.85;72.78;100999.44;5015725;28;45572;-76
2022/09/16 08:03:38;;;;;;;;;11.00;11.00;;;;;17.96;72.00;101000.59;5015245;28;45467;-76
2022/09/16 08:06:06;;;;;;;;;15.00;14.00;;;;;17.99;72.26;100999.34;5016532;28;45567;-76
2022/09/16 08:08:32;;;;;;;;;13.00;11.67;;;;;18.13;71.72;101014.38;5015914;28;45718;-76
2022/09/16 08:10:59;;;;;;;;;10.67;10.67;;;;;18.15;70.97;101016.84;5021650;28;45346;-76
2022/09/16 08:13:26;;;;;;;;;9.00;9.00;;;;;18.11;71.53;101010.25;5022249;28;45556;-76
2022/09/16 08:15:53;;;;;;;;;3.00;3.00;;;;;18.14;70.25;101023.28;5015910;28;45477;-76
2022/09/16 08:18:18;;;;;;;;;12.00;10.00;;;;;18.09;70.66;101020.38;5049139;28;47239;-76
2022/09/16 08:20:43;;;;;;;;;10.33;9.67;;;;;18.16;70.72;101021.16;5029026;28;45413;-76
2022/09/16 08:23:09;;;;;;;;;10.67;10.67;;;;;18.22;70.31;101024.84;5037930;28;45611;-75
2022/09/16 08:25:35;;;;;;;;;9.67;8.33;;;;;18.27;70.55;101022.34;5028239;28;46060;-75
2022/09/16 08:28:01;;;;;;;;;9.33;9.00;;;;;18.25;70.58;101019.03;5019745;28;46241;-77
2022/09/16 08:30:26;;;;;;;;;9.00;9.00;;;;;18.24;70.59;101020.91;5022985;28;45236;-76
2022/09/16 08:32:58;;;;;;;;;10.67;10.00;;;;;18.27;69.79;101028.56;5033620;28;45303;-76
2022/09/16 08:35:25;;;;;;;;;10.67;9.33;;;;;18.19;69.64;101026.13;5024200;28;45584;-77
2022/09/16 08:37:51;;;;;;;;;9.33;9.00;;;;;18.24;70.17;101025.47;5015380;28;45975;-76
2022/09/16 08:40:22;;;;;;;;;12.33;11.00;;;;;18.24;69.46;101034.38;5016026;28;45382;-76
2022/09/16 08:42:59;;;;;;;;;13.00;12.00;;;;;18.32;69.44;101035.97;4998538;28;45315;-76
2022/09/16 08:45:25;;;;;;;;;8.67;7.00;;;;;18.40;69.67;101042.94;5015851;28;45378;-76
2022/09/16 08:48:06;;;;;;;;;15.67;15.33;;;;;18.48;69.24;101045.34;5028189;28;47140;-76
2022/09/16 08:50:40;;;;;;;;;27.00;24.33;;;;;18.46;69.52;101044.75;5022126;28;45380;-76
2022/09/16 08:53:27;;;;;;;;;11.33;11.33;;;;;18.58;69.44;101055.63;5022006;28;45361;-76
2022/09/16 08:55:53;;;;;;;;;8.00;8.00;;;;;18.57;69.15;101047.75;5015767;28;45539;-77
2022/09/16 08:58:25;;;;;;;;;7.67;7.67;;;;;18.63;68.33;101052.25;5015425;28;47044;-76
2022/09/16 09:01:03;;;;;;;;;7.00;7.00;;;;;18.70;67.59;101049.53;5015638;28;45382;-77
2022/09/16 09:03:40;;;;;;;;;5.67;5.67;;;;;18.68;67.43;101050.56;5028257;28;45366;-77
2022/09/16 09:06:27;;;;;;;;;7.00;6.00;;;;;18.74;67.45;101053.41;5015788;28;45463;-76
2022/09/16 09:09:10;;;;;;;;;6.33;6.33;;;;;18.83;66.33;101056.66;5031209;28;47433;-77
2022/09/16 09:11:36;;;;;;;;;9.00;6.00;;;;;18.86;65.86;101056.19;5023675;28;45625;-76
2022/09/16 09:17:53;;;;;;;;;5.00;5.00;;;;;18.73;63.95;101031.03;5058318;28;45380;-77
2022/09/16 09:20:21;;;;;;;;;6.00;6.00;;;;;18.92;64.08;101056.13;5015154;27;45465;-77
2022/09/16 09:23:01;;;;;;;;;4.33;4.33;;;;;18.91;62.84;101059.88;5026998;27;45404;-77
2022/09/16 09:25:33;;;;;;;;;5.67;4.00;;;;;18.89;62.24;101056.56;5011310;27;45343;-76
2022/09/16 09:28:22;;;;;;;;;4.00;4.00;;;;;18.88;61.43;101057.63;5005476;27;46248;-76
2022/09/16 09:31:11;;;;;;;;;5.00;4.33;;;;;18.82;61.88;101050.44;5017716;27;45318;-76
2022/09/16 09:34:02;;;;;;;;;3.00;3.00;;;;;18.77;61.05;101045.69;5015806;27;45507;-76
2022/09/16 09:36:39;;;;;;;;;6.00;4.00;;;;;18.85;61.02;101066.13;5015428;27;45349;-76
2022/09/16 09:39:07;;;;;;;;;3.33;2.33;;;;;18.84;60.72;101066.34;5017366;27;45388;-76
2022/09/16 09:41:45;;;;;;;;;4.00;2.00;;;;;18.90;60.28;101062.78;5018162;27;46132;-76
2022/09/16 09:44:48;;;;;;;;;3.00;3.00;;;;;19.07;58.42;101062.19;5017850;27;45352;-77
2022/09/16 09:47:38;;;;;;;;;1.33;1.00;;;;;19.03;56.17;101051.88;5018360;27;45672;-77
2022/09/16 09:50:13;;;;;;;;;2.00;2.00;;;;;19.20;57.66;101062.09;5020512;27;45327;-77
2022/09/16 09:52:55;;;;;;;;;1.33;1.33;;;;;19.28;55.38;101053.69;5016821;27;48186;-75
2022/09/16 09:55:23;;;;;;;;;1.67;1.00;;;;;19.49;53.58;101064.25;5000046;27;45560;-77
2022/09/16 09:58:08;;;;;;;;;1.00;1.00;;;;;19.57;52.67;101072.00;5021161;27;45637;-76
2022/09/16 10:00:33;;;;;;;;;1.00;0.67;;;;;19.59;51.07;101069.94;5019791;27;46227;-77
2022/09/16 10:03:15;;;;;;;;;2.33;1.00;;;;;19.70;49.63;101065.66;5020345;27;46150;-76
2022/09/16 10:05:41;;;;;;;;;1.00;1.00;;;;;19.64;50.75;101050.38;5018380;27;45433;-76
2022/09/16 10:08:37;;;;;;;;;1.33;1.33;;;;;19.74;50.29;101058.75;5017463;27;45374;-78
2022/09/16 10:11:18;;;;;;;;;1.00;1.00;;;;;19.77;48.21;101068.25;5019042;27;47338;-76
2022/09/16 10:13:52;;;;;;;;;1.00;0.00;;;;;19.79;45.85;101063.44;5025369;28;46744;-76
2022/09/16 10:16:21;;;;;;;;;0.67;0.00;;;;;19.90;48.18;101068.06;5017619;27;45294;-76
2022/09/16 10:19:20;;;;;;;;;1.00;1.00;;;;;20.05;47.83;101062.28;5011688;27;45335;-79
2022/09/16 10:21:52;;;;;;;;;0.00;0.00;;;;;20.13;48.11;101068.38;5064342;27;47354;-75
2022/09/16 10:24:33;;;;;;;;;0.00;0.00;;;;;20.23;46.94;101051.66;5069103;27;46295;-77
2022/09/16 10:27:00;;;;;;;;;2.00;0.67;;;;;20.34;46.56;101052.72;5048333;27;45550;-75
2022/09/16 10:29:26;;;;;;;;;0.67;0.67;;;;;20.36;45.81;101045.22;5018383;27;45323;-75
2022/09/16 10:31:52;;;;;;;;;1.00;1.00;;;;;20.65;45.67;101059.66;5039388;27;45953;-75
2022/09/16 10:34:28;;;;;;;;;1.00;1.00;;;;;20.86;46.52;101064.72;5024358;27;45817;-77
2022/09/16 10:37:01;;;;;;;;;0.00;0.00;;;;;20.90;45.74;101050.53;5023458;27;45440;-77
2022/09/16 10:39:28;;;;;;;;;2.67;2.67;;;;;20.93;43.79;101050.06;5023104;27;45284;-75
2022/09/16 10:41:54;;;;;;;;;1.00;1.00;;;;;20.93;44.83;101049.25;5019173;27;46415;-78
2022/09/16 10:44:27;;;;;;;;;1.00;1.00;;;;;20.99;44.72;101048.31;5016233;27;47584;-77
2022/09/16 10:47:00;;;;;;;;;2.00;2.00;;;;;20.98;43.43;101056.63;5017335;27;45330;-77
2022/09/16 10:49:38;;;;;;;;;2.00;2.00;;;;;20.92;44.35;101051.13;5025200;27;45275;-77
2022/09/16 10:52:19;;;;;;;;;3.33;3.33;;;;;20.84;43.96;101056.03;5032012;27;46309;-78
2022/09/16 10:54:44;;;;;;;;;2.33;2.33;;;;;20.79;45.64;101054.03;5019192;27;45848;-78
2022/09/16 10:57:31;;;;;;;;;2.00;2.00;;;;;20.82;44.50;101058.97;5029111;27;45353;-77
2022/09/16 11:00:20;;;;;;;;;1.67;1.67;;;;;20.89;44.67;101056.97;5030107;27;45357;-76
2022/09/16 11:03:04;;;;;;;;;1.67;1.67;;;;;20.96;44.72;101066.84;5024397;27;47156;-77
2022/09/16 11:05:37;;;;;;;;;1.67;1.67;;;;;20.91;43.87;101057.59;5025365;27;47611;-76
2022/09/16 11:08:08;;;;;;;;;3.00;2.00;;;;;20.93;45.02;101063.59;5043308;27;45384;-77
2022/09/16 11:10:41;;;;;;;;;4.00;2.00;;;;;20.85;43.77;101063.91;5037139;27;45221;-77
2022/09/16 11:13:25;;;;;;;;;2.00;2.00;;;;;20.86;43.69;101075.53;5037120;27;45572;-77
2022/09/16 11:15:53;;;;;;;;;3.33;3.00;;;;;20.90;44.60;101082.13;5038872;27;45343;-77
2022/09/16 11:18:43;;;;;;;;;1.33;1.00;;;;;20.93;43.28;101076.25;5043080;28;45272;-77
2022/09/16 11:21:36;;;;;;;;;2.00;2.00;;;;;20.95;42.87;101071.41;5037212;27;45455;-76
2022/09/16 11:24:30;;;;;;;;;1.00;1.00;;;;;20.97;43.45;101063.09;5041044;27;45559;-77
2022/09/16 11:27:21;;;;;;;;;1.00;1.00;;;;;21.10;43.06;101064.72;5054867;27;45567;-76
2022/09/16 11:30:13;;;;;;;;;4.00;2.00;;;;;21.10;43.62;101057.44;5039042;27;46201;-78
2022/09/16 11:33:00;;;;;;;;;2.00;2.00;;;;;21.12;42.40;101068.00;5067068;27;45532;-78
2022/09/16 11:35:42;;;;;;;;;2.00;2.00;;;;;21.01;42.98;101075.88;5062870;27;45747;-77
2022/09/16 11:38:21;;;;;;;;;2.00;2.00;;;;;20.88;43.37;101071.53;5036506;27;46232;-76
2022/09/16 11:41:05;;;;;;;;;3.00;2.00;;;;;20.76;43.00;101070.69;5038004;27;45271;-75
2022/09/16 11:43:48;;;;;;;;;1.00;1.00;;;;;20.75;43.50;101069.06;5047786;27;45428;-77
2022/09/16 11:46:38;;;;;;;;;1.33;1.33;;;;;20.74;43.53;101062.81;5040790;27;45323;-77